sensor_id;sensor_type;location;lat;lon;timestamp;pressure;altitude;pressure_sealevel;temperature;humidity
17593;BME280;8915;51.760;14.300;2023-06-14T00:01:30;101053.28;;;14.15;57.60
17593;BME280;8915;51.760;14.300;2023-06-14T00:03:59;101050.13;;;14.09;57.18
17593;BME280;8915;51.760;14.300;2023-06-14T00:06:26;101051.13;;;14.05;56.87
17593;BME280;8915;51.760;14.300;2023-06-14T00:08:52;101054.78;;;14.00;57.99
17593;BME280;8915;51.760;14.300;2023-06-14T00:11:19;101053.47;;;13.94;57.83
17593;BME280;8915;51.760;14.300;2023-06-14T00:13:46;101058.91;;;13.86;57.85
17593;BME280;8915;51.760;14.300;2023-06-14T00:16:12;101054.59;;;13.81;57.87
17593;BME280;8915;51.760;14.300;2023-06-14T00:18:40;101065.03;;;13.74;57.72
17593;BME280;8915;51.760;14.300;2023-06-14T00:21:07;101059.94;;;13.69;58.21
17593;BME280;8915;51.760;14.300;2023-06-14T00:23:33;101057.84;;;13.63;59.10
17593;BME280;8915;51.760;14.300;2023-06-14T00:26:02;101055.75;;;13.56;58.10
17593;BME280;8915;51.760;14.300;2023-06-14T00:28:29;101051.34;;;13.48;59.78
17593;BME280;8915;51.760;14.300;2023-06-14T00:30:55;101054.97;;;13.44;58.14
17593;BME280;8915;51.760;14.300;2023-06-14T00:33:22;101055.88;;;13.36;59.14
17593;BME280;8915;51.760;14.300;2023-06-14T00:35:51;101055.31;;;13.30;59.65
17593;BME280;8915;51.760;14.300;2023-06-14T00:38:19;101043.38;;;13.24;60.06
17593;BME280;8915;51.760;14.300;2023-06-14T00:40:46;101038.75;;;13.21;60.22
17593;BME280;8915;51.760;14.300;2023-06-14T00:43:15;101045.03;;;13.17;59.89
17593;BME280;8915;51.760;14.300;2023-06-14T00:45:42;101046.03;;;13.12;61.69
17593;BME280;8915;51.760;14.300;2023-06-14T00:48:10;101045.91;;;13.09;60.27
17593;BME280;8915;51.760;14.300;2023-06-14T00:50:37;101036.28;;;13.04;60.46
17593;BME280;8915;51.760;14.300;2023-06-14T00:53:05;101035.41;;;13.00;60.38
17593;BME280;8915;51.760;14.300;2023-06-14T00:55:33;101033.41;;;12.97;60.79
17593;BME280;8915;51.760;14.300;2023-06-14T00:58:00;101032.16;;;12.95;62.49
17593;BME280;8915;51.760;14.300;2023-06-14T01:00:26;101025.53;;;12.89;60.33
17593;BME280;8915;51.760;14.300;2023-06-14T01:02:54;101036.03;;;12.85;62.87
17593;BME280;8915;51.760;14.300;2023-06-14T01:05:22;101033.25;;;12.82;62.20
17593;BME280;8915;51.760;14.300;2023-06-14T01:08:04;101028.63;;;12.79;61.46
17593;BME280;8915;51.760;14.300;2023-06-14T01:10:47;101038.31;;;12.75;61.61
17593;BME280;8915;51.760;14.300;2023-06-14T01:13:20;101032.91;;;12.71;60.43
17593;BME280;8915;51.760;14.300;2023-06-14T01:15:48;101040.75;;;12.68;61.24
17593;BME280;8915;51.760;14.300;2023-06-14T01:18:16;101033.13;;;12.66;62.82
17593;BME280;8915;51.760;14.300;2023-06-14T01:20:44;101035.66;;;12.63;62.29
17593;BME280;8915;51.760;14.300;2023-06-14T01:23:15;101047.22;;;12.58;61.53
17593;BME280;8915;51.760;14.300;2023-06-14T01:25:42;101037.91;;;12.52;62.07
17593;BME280;8915;51.760;14.300;2023-06-14T01:28:11;101039.34;;;12.50;61.96
17593;BME280;8915;51.760;14.300;2023-06-14T01:30:40;101039.22;;;12.46;63.56
17593;BME280;8915;51.760;14.300;2023-06-14T01:33:11;101034.91;;;12.42;63.10
17593;BME280;8915;51.760;14.300;2023-06-14T01:35:38;101035.13;;;12.37;62.25
17593;BME280;8915;51.760;14.300;2023-06-14T01:38:06;101046.03;;;12.35;62.67
17593;BME280;8915;51.760;14.300;2023-06-14T01:40:34;101045.13;;;12.31;62.60
17593;BME280;8915;51.760;14.300;2023-06-14T01:43:03;101046.56;;;12.29;63.90
17593;BME280;8915;51.760;14.300;2023-06-14T01:45:31;101045.34;;;12.26;63.41
17593;BME280;8915;51.760;14.300;2023-06-14T01:47:59;101049.41;;;12.24;64.79
17593;BME280;8915;51.760;14.300;2023-06-14T01:50:28;101048.97;;;12.22;64.18
17593;BME280;8915;51.760;14.300;2023-06-14T01:52:56;101048.06;;;12.18;64.49
17593;BME280;8915;51.760;14.300;2023-06-14T01:55:23;101045.72;;;12.16;63.71
17593;BME280;8915;51.760;14.300;2023-06-14T01:57:51;101055.88;;;12.14;64.13
17593;BME280;8915;51.760;14.300;2023-06-14T02:00:18;101055.75;;;12.11;63.68
17593;BME280;8915;51.760;14.300;2023-06-14T02:02:47;101056.72;;;12.06;63.98
17593;BME280;8915;51.760;14.300;2023-06-14T02:05:14;101050.19;;;12.04;64.94
17593;BME280;8915;51.760;14.300;2023-06-14T02:07:44;101058.31;;;11.99;63.56
17593;BME280;8915;51.760;14.300;2023-06-14T02:10:10;101056.34;;;11.96;63.76
17593;BME280;8915;51.760;14.300;2023-06-14T02:12:37;101059.59;;;11.93;64.16
17593;BME280;8915;51.760;14.300;2023-06-14T02:15:07;101063.34;;;11.92;64.30
17593;BME280;8915;51.760;14.300;2023-06-14T02:17:33;101058.69;;;11.89;63.70
17593;BME280;8915;51.760;14.300;2023-06-14T02:20:06;101065.75;;;11.85;64.49
17593;BME280;8915;51.760;14.300;2023-06-14T02:22:34;101059.66;;;11.84;65.30
17593;BME280;8915;51.760;14.300;2023-06-14T02:25:01;101061.88;;;11.82;65.44
17593;BME280;8915;51.760;14.300;2023-06-14T02:27:27;101066.69;;;11.80;64.12
17593;BME280;8915;51.760;14.300;2023-06-14T02:29:53;101063.13;;;11.76;64.51
17593;BME280;8915;51.760;14.300;2023-06-14T02:32:21;101066.00;;;11.71;64.98
17593;BME280;8915;51.760;14.300;2023-06-14T02:34:48;101066.44;;;11.73;67.27
17593;BME280;8915;51.760;14.300;2023-06-14T02:37:15;101071.59;;;11.70;67.92
17593;BME280;8915;51.760;14.300;2023-06-14T02:39:42;101077.06;;;11.65;67.05
17593;BME280;8915;51.760;14.300;2023-06-14T02:42:10;101073.19;;;11.62;67.03
17593;BME280;8915;51.760;14.300;2023-06-14T02:44:41;101074.63;;;11.60;65.86
17593;BME280;8915;51.760;14.300;2023-06-14T02:47:08;101073.34;;;11.57;66.04
17593;BME280;8915;51.760;14.300;2023-06-14T02:49:36;101074.75;;;11.55;66.11
17593;BME280;8915;51.760;14.300;2023-06-14T02:52:03;101068.25;;;11.52;66.21
17593;BME280;8915;51.760;14.300;2023-06-14T02:54:30;101073.84;;;11.51;67.46
17593;BME280;8915;51.760;14.300;2023-06-14T02:56:57;101076.66;;;11.46;66.70
17593;BME280;8915;51.760;14.300;2023-06-14T02:59:23;101078.88;;;11.44;67.50
17593;BME280;8915;51.760;14.300;2023-06-14T03:01:51;101080.72;;;11.43;66.63
17593;BME280;8915;51.760;14.300;2023-06-14T03:04:17;101088.66;;;11.43;67.66
17593;BME280;8915;51.760;14.300;2023-06-14T03:06:46;101077.31;;;11.43;68.43
17593;BME280;8915;51.760;14.300;2023-06-14T03:09:17;101079.19;;;11.42;68.78
17593;BME280;8915;51.760;14.300;2023-06-14T03:11:46;101070.00;;;11.40;66.81
17593;BME280;8915;51.760;14.300;2023-06-14T03:14:13;101080.59;;;11.40;68.43
17593;BME280;8915;51.760;14.300;2023-06-14T03:16:41;101081.69;;;11.39;67.31
17593;BME280;8915;51.760;14.300;2023-06-14T03:19:10;101084.34;;;11.39;68.51
17593;BME280;8915;51.760;14.300;2023-06-14T03:21:36;101079.81;;;11.39;67.89
17593;BME280;8915;51.760;14.300;2023-06-14T03:24:06;101086.31;;;11.42;68.43
17593;BME280;8915;51.760;14.300;2023-06-14T03:26:34;101078.09;;;11.43;67.91
17593;BME280;8915;51.760;14.300;2023-06-14T03:29:02;101083.50;;;11.47;68.56
17593;BME280;8915;51.760;14.300;2023-06-14T03:31:33;101090.03;;;11.49;67.71
17593;BME280;8915;51.760;14.300;2023-06-14T03:34:02;101086.75;;;11.52;67.65
17593;BME280;8915;51.760;14.300;2023-06-14T03:36:29;101094.50;;;11.57;69.30
17593;BME280;8915;51.760;14.300;2023-06-14T03:38:58;101096.53;;;11.60;67.35
17593;BME280;8915;51.760;14.300;2023-06-14T03:41:26;101094.19;;;11.67;68.30
17593;BME280;8915;51.760;14.300;2023-06-14T03:43:53;101096.78;;;11.76;67.83
17593;BME280;8915;51.760;14.300;2023-06-14T03:46:22;101096.72;;;11.84;67.96
17593;BME280;8915;51.760;14.300;2023-06-14T03:48:49;101097.94;;;11.87;67.23
17593;BME280;8915;51.760;14.300;2023-06-14T03:51:16;101119.72;;;11.92;67.74
17593;BME280;8915;51.760;14.300;2023-06-14T03:53:43;101118.75;;;11.97;68.67
17593;BME280;8915;51.760;14.300;2023-06-14T03:56:10;101123.97;;;12.05;67.08
17593;BME280;8915;51.760;14.300;2023-06-14T03:58:43;101108.53;;;12.07;67.57
17593;BME280;8915;51.760;14.300;2023-06-14T04:01:09;101126.88;;;12.12;67.04
17593;BME280;8915;51.760;14.300;2023-06-14T04:03:37;101133.09;;;12.16;67.55
17593;BME280;8915;51.760;14.300;2023-06-14T04:06:05;101135.22;;;12.23;67.70
17593;BME280;8915;51.760;14.300;2023-06-14T04:08:33;101120.69;;;12.29;67.52
17593;BME280;8915;51.760;14.300;2023-06-14T04:10:59;101125.50;;;12.35;66.81
17593;BME280;8915;51.760;14.300;2023-06-14T04:13:26;101135.56;;;12.42;67.29
17593;BME280;8915;51.760;14.300;2023-06-14T04:15:54;101128.66;;;12.49;68.08
17593;BME280;8915;51.760;14.300;2023-06-14T04:18:26;101132.66;;;12.55;67.28
17593;BME280;8915;51.760;14.300;2023-06-14T04:20:52;101134.63;;;12.58;66.28
17593;BME280;8915;51.760;14.300;2023-06-14T04:23:22;101148.34;;;12.60;66.54
17593;BME280;8915;51.760;14.300;2023-06-14T04:25:49;101145.69;;;12.60;66.35
17593;BME280;8915;51.760;14.300;2023-06-14T04:28:16;101151.44;;;12.62;66.90
17593;BME280;8915;51.760;14.300;2023-06-14T04:30:44;101145.69;;;12.60;66.71
17593;BME280;8915;51.760;14.300;2023-06-14T04:33:14;101143.03;;;12.60;67.37
17593;BME280;8915;51.760;14.300;2023-06-14T04:35:41;101146.59;;;12.64;68.22
17593;BME280;8915;51.760;14.300;2023-06-14T04:38:08;101156.66;;;12.71;67.22
17593;BME280;8915;51.760;14.300;2023-06-14T04:40:35;101142.88;;;12.77;66.51
17593;BME280;8915;51.760;14.300;2023-06-14T04:43:09;101146.25;;;12.86;66.78
17593;BME280;8915;51.760;14.300;2023-06-14T04:45:39;101144.75;;;12.97;66.60
17593;BME280;8915;51.760;14.300;2023-06-14T04:48:07;101143.34;;;13.12;67.29
17593;BME280;8915;51.760;14.300;2023-06-14T04:50:36;101147.25;;;13.26;67.67
17593;BME280;8915;51.760;14.300;2023-06-14T04:53:06;101151.47;;;13.39;66.76
17593;BME280;8915;51.760;14.300;2023-06-14T04:55:33;101143.19;;;13.53;65.95
17593;BME280;8915;51.760;14.300;2023-06-14T04:58:04;101141.09;;;13.70;66.17
17593;BME280;8915;51.760;14.300;2023-06-14T05:00:31;101145.75;;;13.85;66.18
17593;BME280;8915;51.760;14.300;2023-06-14T05:02:57;101137.75;;;13.97;65.16
17593;BME280;8915;51.760;14.300;2023-06-14T05:05:26;101129.66;;;14.06;65.17
17593;BME280;8915;51.760;14.300;2023-06-14T05:07:54;101137.41;;;14.11;65.17
17593;BME280;8915;51.760;14.300;2023-06-14T05:10:21;101139.41;;;14.14;64.47
17593;BME280;8915;51.760;14.300;2023-06-14T05:12:47;101138.72;;;14.17;64.52
17593;BME280;8915;51.760;14.300;2023-06-14T05:15:15;101144.94;;;14.21;64.87
17593;BME280;8915;51.760;14.300;2023-06-14T05:17:42;101150.56;;;14.19;64.59
17593;BME280;8915;51.760;14.300;2023-06-14T05:20:08;101149.69;;;14.27;64.67
17593;BME280;8915;51.760;14.300;2023-06-14T05:22:39;101155.88;;;14.31;64.11
17593;BME280;8915;51.760;14.300;2023-06-14T05:25:07;101152.13;;;14.32;63.89
17593;BME280;8915;51.760;14.300;2023-06-14T05:27:34;101158.97;;;14.33;63.59
17593;BME280;8915;51.760;14.300;2023-06-14T05:30:02;101153.00;;;14.36;63.95
17593;BME280;8915;51.760;14.300;2023-06-14T05:32:29;101150.00;;;14.38;64.34
17593;BME280;8915;51.760;14.300;2023-06-14T05:34:56;101150.09;;;14.41;64.30
17593;BME280;8915;51.760;14.300;2023-06-14T05:37:22;101153.97;;;14.44;63.96
17593;BME280;8915;51.760;14.300;2023-06-14T05:39:52;101147.97;;;14.47;64.46
17593;BME280;8915;51.760;14.300;2023-06-14T05:42:22;101151.41;;;14.47;64.09
17593;BME280;8915;51.760;14.300;2023-06-14T05:44:48;101154.41;;;14.46;64.12
17593;BME280;8915;51.760;14.300;2023-06-14T05:47:14;101149.19;;;14.49;64.10
17593;BME280;8915;51.760;14.300;2023-06-14T05:49:41;101160.50;;;14.46;64.04
17593;BME280;8915;51.760;14.300;2023-06-14T05:52:08;101165.81;;;14.46;64.12
17593;BME280;8915;51.760;14.300;2023-06-14T05:54:35;101165.03;;;14.46;63.79
17593;BME280;8915;51.760;14.300;2023-06-14T05:57:01;101168.47;;;14.46;64.42
17593;BME280;8915;51.760;14.300;2023-06-14T05:59:31;101160.94;;;14.48;63.76
17593;BME280;8915;51.760;14.300;2023-06-14T06:01:57;101162.78;;;14.48;64.02
17593;BME280;8915;51.760;14.300;2023-06-14T06:04:24;101160.59;;;14.50;64.40
17593;BME280;8915;51.760;14.300;2023-06-14T06:06:50;101163.25;;;14.50;63.63
17593;BME280;8915;51.760;14.300;2023-06-14T06:09:17;101161.34;;;14.50;63.24
17593;BME280;8915;51.760;14.300;2023-06-14T06:11:44;101165.22;;;14.53;64.13
17593;BME280;8915;51.760;14.300;2023-06-14T06:14:10;101164.56;;;14.56;64.12
17593;BME280;8915;51.760;14.300;2023-06-14T06:16:40;101171.09;;;14.58;63.86
17593;BME280;8915;51.760;14.300;2023-06-14T06:19:07;101170.06;;;14.63;64.31
17593;BME280;8915;51.760;14.300;2023-06-14T06:21:33;101162.97;;;14.67;64.13
17593;BME280;8915;51.760;14.300;2023-06-14T06:23:59;101161.59;;;14.73;64.83
17593;BME280;8915;51.760;14.300;2023-06-14T06:26:28;101169.34;;;14.78;63.64
17593;BME280;8915;51.760;14.300;2023-06-14T06:28:55;101172.88;;;14.82;63.17
17593;BME280;8915;51.760;14.300;2023-06-14T06:31:22;101171.50;;;14.88;63.50
17593;BME280;8915;51.760;14.300;2023-06-14T06:33:50;101175.84;;;14.92;63.07
17593;BME280;8915;51.760;14.300;2023-06-14T06:36:16;101174.91;;;15.00;63.46
17593;BME280;8915;51.760;14.300;2023-06-14T06:38:42;101181.50;;;15.06;62.93
17593;BME280;8915;51.760;14.300;2023-06-14T06:41:09;101181.72;;;15.13;62.52
17593;BME280;8915;51.760;14.300;2023-06-14T06:43:35;101179.56;;;15.19;62.71
17593;BME280;8915;51.760;14.300;2023-06-14T06:46:02;101189.63;;;15.25;62.65
17593;BME280;8915;51.760;14.300;2023-06-14T06:48:28;101182.50;;;15.29;62.27
17593;BME280;8915;51.760;14.300;2023-06-14T06:50:56;101186.81;;;15.34;62.26
17593;BME280;8915;51.760;14.300;2023-06-14T06:53:22;101186.56;;;15.39;61.99
17593;BME280;8915;51.760;14.300;2023-06-14T06:55:48;101189.22;;;15.39;62.35
17593;BME280;8915;51.760;14.300;2023-06-14T06:58:18;101189.41;;;15.46;62.12
17593;BME280;8915;51.760;14.300;2023-06-14T07:00:44;101199.91;;;15.54;62.28
17593;BME280;8915;51.760;14.300;2023-06-14T07:03:11;101192.16;;;15.65;62.46
17593;BME280;8915;51.760;14.300;2023-06-14T07:05:38;101197.84;;;15.79;62.00
17593;BME280;8915;51.760;14.300;2023-06-14T07:08:08;101198.94;;;15.93;61.74
17593;BME280;8915;51.760;14.300;2023-06-14T07:10:34;101206.53;;;16.10;62.10
17593;BME280;8915;51.760;14.300;2023-06-14T07:13:02;101203.72;;;16.19;61.21
17593;BME280;8915;51.760;14.300;2023-06-14T07:15:29;101211.59;;;16.31;61.18
17593;BME280;8915;51.760;14.300;2023-06-14T07:17:55;101210.72;;;16.42;61.03
17593;BME280;8915;51.760;14.300;2023-06-14T07:20:25;101215.94;;;16.54;60.58
17593;BME280;8915;51.760;14.300;2023-06-14T07:22:51;101208.50;;;16.63;60.32
17593;BME280;8915;51.760;14.300;2023-06-14T07:25:19;101212.50;;;16.73;60.50
17593;BME280;8915;51.760;14.300;2023-06-14T07:27:45;101207.38;;;16.83;60.41
17593;BME280;8915;51.760;14.300;2023-06-14T07:30:12;101210.31;;;16.97;60.38
17593;BME280;8915;51.760;14.300;2023-06-14T07:32:39;101210.53;;;17.08;59.53
17593;BME280;8915;51.760;14.300;2023-06-14T07:35:06;101206.56;;;17.21;59.52
17593;BME280;8915;51.760;14.300;2023-06-14T07:37:33;101209.41;;;17.31;59.04
17593;BME280;8915;51.760;14.300;2023-06-14T07:39:59;101203.88;;;17.40;59.25
17593;BME280;8915;51.760;14.300;2023-06-14T07:42:27;101201.31;;;17.47;59.23
17593;BME280;8915;51.760;14.300;2023-06-14T07:44:53;101200.31;;;17.55;58.77
17593;BME280;8915;51.760;14.300;2023-06-14T07:47:19;101211.13;;;17.62;58.65
17593;BME280;8915;51.760;14.300;2023-06-14T07:49:46;101210.47;;;17.68;58.91
17593;BME280;8915;51.760;14.300;2023-06-14T07:52:12;101210.22;;;17.77;58.50
17593;BME280;8915;51.760;14.300;2023-06-14T07:54:38;101194.28;;;17.84;58.38
17593;BME280;8915;51.760;14.300;2023-06-14T07:57:06;101210.09;;;17.92;57.60
17593;BME280;8915;51.760;14.300;2023-06-14T07:59:34;101203.66;;;17.97;57.42
17593;BME280;8915;51.760;14.300;2023-06-14T08:02:00;101210.22;;;18.03;57.32
17593;BME280;8915;51.760;14.300;2023-06-14T08:04:26;101208.47;;;18.14;57.78
17593;BME280;8915;51.760;14.300;2023-06-14T08:06:53;101219.38;;;18.28;57.79
17593;BME280;8915;51.760;14.300;2023-06-14T08:09:19;101214.25;;;18.42;57.46
17593;BME280;8915;51.760;14.300;2023-06-14T08:11:46;101221.03;;;18.62;56.80
17593;BME280;8915;51.760;14.300;2023-06-14T08:14:12;101216.97;;;18.75;56.51
17593;BME280;8915;51.760;14.300;2023-06-14T08:16:40;101224.38;;;18.88;56.02
17593;BME280;8915;51.760;14.300;2023-06-14T08:19:06;101225.69;;;19.01;56.35
17593;BME280;8915;51.760;14.300;2023-06-14T08:21:32;101222.34;;;19.11;56.16
17593;BME280;8915;51.760;14.300;2023-06-14T08:24:02;101227.09;;;19.21;55.88
17593;BME280;8915;51.760;14.300;2023-06-14T08:26:29;101224.13;;;19.33;55.43
17593;BME280;8915;51.760;14.300;2023-06-14T08:28:57;101222.28;;;19.37;53.94
17593;BME280;8915;51.760;14.300;2023-06-14T08:31:23;101224.16;;;19.37;53.41
17593;BME280;8915;51.760;14.300;2023-06-14T08:33:51;101215.47;;;19.47;54.63
17593;BME280;8915;51.760;14.300;2023-06-14T08:36:18;101222.78;;;19.50;53.59
17593;BME280;8915;51.760;14.300;2023-06-14T08:38:44;101212.09;;;19.53;54.15
17593;BME280;8915;51.760;14.300;2023-06-14T08:41:11;101207.91;;;19.59;54.32
17593;BME280;8915;51.760;14.300;2023-06-14T08:43:39;101217.94;;;19.66;53.44
17593;BME280;8915;51.760;14.300;2023-06-14T08:46:06;101216.81;;;19.70;53.76
17593;BME280;8915;51.760;14.300;2023-06-14T08:48:34;101217.16;;;19.69;53.32
17593;BME280;8915;51.760;14.300;2023-06-14T08:51:02;101218.81;;;19.84;52.50
17593;BME280;8915;51.760;14.300;2023-06-14T08:53:30;101215.41;;;19.83;53.35
17593;BME280;8915;51.760;14.300;2023-06-14T08:55:59;101216.16;;;19.84;52.82
17593;BME280;8915;51.760;14.300;2023-06-14T08:58:27;101213.81;;;19.82;53.11
17593;BME280;8915;51.760;14.300;2023-06-14T09:00:54;101211.13;;;19.79;52.63
17593;BME280;8915;51.760;14.300;2023-06-14T09:03:21;101218.00;;;19.76;53.43
17593;BME280;8915;51.760;14.300;2023-06-14T09:05:48;101221.81;;;19.72;53.36
17593;BME280;8915;51.760;14.300;2023-06-14T09:08:16;101226.34;;;19.68;53.13
17593;BME280;8915;51.760;14.300;2023-06-14T09:10:44;101215.66;;;19.71;52.53
17593;BME280;8915;51.760;14.300;2023-06-14T09:13:11;101227.22;;;19.79;53.50
17593;BME280;8915;51.760;14.300;2023-06-14T09:15:38;101224.16;;;19.80;52.32
17593;BME280;8915;51.760;14.300;2023-06-14T09:18:04;101217.31;;;19.86;52.56
17593;BME280;8915;51.760;14.300;2023-06-14T09:20:31;101219.25;;;19.89;52.40
17593;BME280;8915;51.760;14.300;2023-06-14T09:22:57;101217.00;;;19.95;51.87
17593;BME280;8915;51.760;14.300;2023-06-14T09:25:25;101218.59;;;20.03;52.06
17593;BME280;8915;51.760;14.300;2023-06-14T09:27:52;101225.56;;;20.11;52.52
17593;BME280;8915;51.760;14.300;2023-06-14T09:30:20;101221.41;;;20.17;51.47
17593;BME280;8915;51.760;14.300;2023-06-14T09:32:47;101217.59;;;20.21;51.12
17593;BME280;8915;51.760;14.300;2023-06-14T09:35:17;101221.81;;;20.26;51.75
17593;BME280;8915;51.760;14.300;2023-06-14T09:37:44;101214.19;;;20.28;50.38
17593;BME280;8915;51.760;14.300;2023-06-14T09:40:10;101209.56;;;20.25;51.02
17593;BME280;8915;51.760;14.300;2023-06-14T09:42:38;101214.91;;;20.25;49.40
17593;BME280;8915;51.760;14.300;2023-06-14T09:45:07;101215.63;;;20.18;49.27
17593;BME280;8915;51.760;14.300;2023-06-14T09:47:36;101217.50;;;20.11;49.23
17593;BME280;8915;51.760;14.300;2023-06-14T09:50:02;101219.34;;;20.03;49.87
17593;BME280;8915;51.760;14.300;2023-06-14T09:52:29;101223.84;;;19.92;49.84
17593;BME280;8915;51.760;14.300;2023-06-14T09:54:57;101224.56;;;19.82;50.02
17593;BME280;8915;51.760;14.300;2023-06-14T09:57:25;101220.63;;;19.69;49.98
17593;BME280;8915;51.760;14.300;2023-06-14T09:59:57;101224.75;;;19.60;50.79
17593;BME280;8915;51.760;14.300;2023-06-14T10:02:26;101229.63;;;19.47;50.17
17593;BME280;8915;51.760;14.300;2023-06-14T10:04:58;101222.63;;;19.36;50.58
17593;BME280;8915;51.760;14.300;2023-06-14T10:07:27;101224.84;;;19.30;51.10
17593;BME280;8915;51.760;14.300;2023-06-14T10:09:57;101219.06;;;19.21;51.15
17593;BME280;8915;51.760;14.300;2023-06-14T10:12:24;101221.59;;;19.14;51.03
17593;BME280;8915;51.760;14.300;2023-06-14T10:14:51;101227.28;;;19.09;51.47
17593;BME280;8915;51.760;14.300;2023-06-14T10:17:25;101227.28;;;19.09;51.48
17593;BME280;8915;51.760;14.300;2023-06-14T10:19:55;101225.75;;;19.08;51.30
17593;BME280;8915;51.760;14.300;2023-06-14T10:22:27;101228.06;;;19.10;51.69
17593;BME280;8915;51.760;14.300;2023-06-14T10:24:55;101226.16;;;19.10;51.34
17593;BME280;8915;51.760;14.300;2023-06-14T10:27:21;101220.88;;;19.17;51.46
17593;BME280;8915;51.760;14.300;2023-06-14T10:30:03;101216.78;;;19.27;51.89
17593;BME280;8915;51.760;14.300;2023-06-14T10:32:33;101216.13;;;19.37;51.49
17593;BME280;8915;51.760;14.300;2023-06-14T10:35:01;101203.25;;;19.49;51.30
17593;BME280;8915;51.760;14.300;2023-06-14T10:37:27;101199.94;;;19.66;51.11
17593;BME280;8915;51.760;14.300;2023-06-14T10:39:54;101203.91;;;19.86;50.58
17593;BME280;8915;51.760;14.300;2023-06-14T10:42:20;101205.91;;;20.00;50.24
17593;BME280;8915;51.760;14.300;2023-06-14T10:44:49;101201.03;;;20.12;50.19
17593;BME280;8915;51.760;14.300;2023-06-14T10:47:21;101203.75;;;20.19;49.38
17593;BME280;8915;51.760;14.300;2023-06-14T10:49:52;101198.81;;;20.25;49.68
17593;BME280;8915;51.760;14.300;2023-06-14T10:52:22;101197.31;;;20.31;48.88
17593;BME280;8915;51.760;14.300;2023-06-14T10:55:05;101193.53;;;20.39;49.32
17593;BME280;8915;51.760;14.300;2023-06-14T10:57:35;101187.41;;;20.42;49.42
17593;BME280;8915;51.760;14.300;2023-06-14T11:00:03;101193.97;;;20.48;49.40
17593;BME280;8915;51.760;14.300;2023-06-14T11:02:51;101184.00;;;20.52;48.81
17593;BME280;8915;51.760;14.300;2023-06-14T11:05:24;101184.06;;;20.59;48.78
17593;BME280;8915;51.760;14.300;2023-06-14T11:08:15;101186.75;;;20.66;48.43
17593;BME280;8915;51.760;14.300;2023-06-14T11:10:44;101186.75;;;20.69;47.94
17593;BME280;8915;51.760;14.300;2023-06-14T11:13:11;101180.63;;;20.69;48.30
17593;BME280;8915;51.760;14.300;2023-06-14T11:15:38;101183.69;;;20.67;48.59
17593;BME280;8915;51.760;14.300;2023-06-14T11:18:09;101189.06;;;20.64;48.34
17593;BME280;8915;51.760;14.300;2023-06-14T11:20:37;101189.78;;;20.61;48.45
17593;BME280;8915;51.760;14.300;2023-06-14T11:23:04;101180.94;;;20.53;48.21
17593;BME280;8915;51.760;14.300;2023-06-14T11:25:30;101188.59;;;20.48;48.42
17593;BME280;8915;51.760;14.300;2023-06-14T11:27:57;101185.13;;;20.44;48.61
17593;BME280;8915;51.760;14.300;2023-06-14T11:30:24;101194.69;;;20.41;48.42
17593;BME280;8915;51.760;14.300;2023-06-14T11:32:52;101189.34;;;20.41;48.40
17593;BME280;8915;51.760;14.300;2023-06-14T11:35:21;101184.38;;;20.47;48.53
17593;BME280;8915;51.760;14.300;2023-06-14T11:37:52;101192.06;;;20.52;48.49
17593;BME280;8915;51.760;14.300;2023-06-14T11:40:19;101189.38;;;20.55;48.52
17593;BME280;8915;51.760;14.300;2023-06-14T11:42:45;101185.56;;;20.56;47.54
17593;BME280;8915;51.760;14.300;2023-06-14T11:45:12;101186.69;;;20.55;48.11
17593;BME280;8915;51.760;14.300;2023-06-14T11:47:39;101183.66;;;20.60;48.63
17593;BME280;8915;51.760;14.300;2023-06-14T11:50:07;101183.31;;;20.69;49.09
17593;BME280;8915;51.760;14.300;2023-06-14T11:52:35;101173.38;;;20.83;48.57
17593;BME280;8915;51.760;14.300;2023-06-14T11:55:04;101184.59;;;21.06;48.68
17593;BME280;8915;51.760;14.300;2023-06-14T11:57:33;101174.25;;;21.15;47.03
17593;BME280;8915;51.760;14.300;2023-06-14T12:00:03;101172.72;;;21.25;47.32
17593;BME280;8915;51.760;14.300;2023-06-14T12:02:37;101162.34;;;21.37;47.70
17593;BME280;8915;51.760;14.300;2023-06-14T12:05:04;101158.91;;;21.47;46.92
17593;BME280;8915;51.760;14.300;2023-06-14T12:07:33;101157.38;;;21.60;47.05
17593;BME280;8915;51.760;14.300;2023-06-14T12:10:08;101148.94;;;21.72;45.70
17593;BME280;8915;51.760;14.300;2023-06-14T12:12:36;101158.91;;;21.82;45.67
17593;BME280;8915;51.760;14.300;2023-06-14T12:15:03;101153.13;;;21.91;45.77
17593;BME280;8915;51.760;14.300;2023-06-14T12:17:32;101157.31;;;22.06;45.61
17593;BME280;8915;51.760;14.300;2023-06-14T12:19:58;101159.56;;;22.18;45.53
17593;BME280;8915;51.760;14.300;2023-06-14T12:22:27;101147.69;;;22.19;44.37
17593;BME280;8915;51.760;14.300;2023-06-14T12:24:55;101151.84;;;22.30;44.45
17593;BME280;8915;51.760;14.300;2023-06-14T12:27:23;101160.31;;;22.36;44.57
17593;BME280;8915;51.760;14.300;2023-06-14T12:29:59;101161.44;;;22.45;44.59
17593;BME280;8915;51.760;14.300;2023-06-14T12:32:25;101151.00;;;22.58;43.65
17593;BME280;8915;51.760;14.300;2023-06-14T12:34:52;101143.59;;;22.76;43.71
17593;BME280;8915;51.760;14.300;2023-06-14T12:37:18;101151.59;;;22.86;44.27
17593;BME280;8915;51.760;14.300;2023-06-14T12:39:44;101139.22;;;22.96;41.81
17593;BME280;8915;51.760;14.300;2023-06-14T12:42:11;101136.84;;;23.08;43.38
17593;BME280;8915;51.760;14.300;2023-06-14T12:44:40;101135.97;;;23.26;42.80
17593;BME280;8915;51.760;14.300;2023-06-14T12:47:08;101130.88;;;23.34;40.89
17593;BME280;8915;51.760;14.300;2023-06-14T12:49:34;101128.53;;;23.40;41.90
17593;BME280;8915;51.760;14.300;2023-06-14T12:52:00;101127.41;;;23.38;41.18
17593;BME280;8915;51.760;14.300;2023-06-14T12:54:27;101131.00;;;23.21;41.02